Ocean Majesty — CQSC — position and weather

sailwx.info

Track history (hours):
 
Tides and Currents Weather Stations Pressure Air Temp Water Temp Dewpoint Dewpoint Depression Visibility Wind Speed Wind Dir Waves Ship Positions

Ocean Majesty

Last reported at 2014-Oct-15 03:31 UTC. Time now 2014-Nov-25 23:11 UTC.
Position N 38°18' E 023°58'.
Warning: this ship's position is 41 days out of date.

Length 136 m; draft 6.3 m.

Type: Passenger vessel. MMSI: 255717000.

Date/timePositionNaut miles runAvg speedWind from/ knotsBaromVisibWave heightAir tempDewpointWater temp
2014-Oct-15 03:31N 38°18' E 023°58'1211.5
2014-Oct-15 02:29N 38°09' E 024°08'1112.0
2014-Oct-15 01:33N 37°58' E 024°09'12 9.2
2014-Oct-15 00:15N 37°47' E 024°16'911.8
2014-Oct-14 23:32N 37°39' E 024°12'2110.4
2014-Oct-14 21:32N 37°33' E 023°47'1111.3
2014-Oct-14 20:33N 37°43' E 023°41'1211.6
2014-Oct-14 19:33N 37°54' E 023°36'3 2.8
2014-Oct-14 18:30N 37°56' E 023°38'0 0.0
2014-Oct-14 17:33N 37°56' E 023°38'0 0.0
2014-Oct-14 16:33N 37°56' E 023°38'0 0.0
2014-Oct-14 15:33N 37°56' E 023°38'0 0.0
2014-Oct-14 14:33N 37°56' E 023°38'0 0.0
2014-Oct-14 13:33N 37°56' E 023°38'0 0.0
2014-Oct-14 12:33N 37°56' E 023°38'0 0.0
2014-Oct-14 11:33N 37°56' E 023°38'0 0.0
2014-Oct-14 10:33N 37°56' E 023°38'0 0.0
2014-Oct-14 09:33N 37°56' E 023°38'0 0.0
2014-Oct-14 08:33N 37°56' E 023°38'0 0.0
2014-Oct-14 07:33N 37°56' E 023°38'0 0.0
2014-Oct-14 06:24N 37°56' E 023°38'0 0.0
2014-Oct-14 05:33N 37°56' E 023°38'0 0.0
2014-Oct-14 04:33N 37°56' E 023°38'0 0.0
2014-Oct-14 03:33N 37°56' E 023°38'0 0.0
2014-Oct-14 02:33N 37°56' E 023°38'0 0.0
2014-Oct-14 01:21N 37°56' E 023°38'0 0.0
2014-Oct-14 00:18N 37°56' E 023°38'0 0.0
2014-Oct-13 23:32N 37°56' E 023°38'0 0.0
2014-Oct-13 22:29N 37°56' E 023°38'0 0.0
2014-Oct-13 21:32N 37°56' E 023°38'0 0.0
2014-Oct-13 20:32N 37°56' E 023°38'0 0.0
2014-Oct-13 19:32N 37°56' E 023°38'0 0.0
2014-Oct-13 18:32N 37°56' E 023°38'0 0.0
2014-Oct-13 17:32N 37°56' E 023°38'0 0.0
2014-Oct-13 16:29N 37°56' E 023°38'0 0.0
2014-Oct-13 15:32N 37°56' E 023°38'0 0.0
2014-Oct-13 14:32N 37°56' E 023°38'0 0.0
2014-Oct-13 13:32N 37°56' E 023°38'0 0.0
2014-Oct-13 12:32N 37°56' E 023°38'0 0.0
2014-Oct-13 11:20N 37°56' E 023°38'0 0.0
2014-Oct-13 10:32N 37°56' E 023°38'0 0.0
2014-Oct-13 09:32N 37°56' E 023°38'0 0.0
2014-Oct-13 08:32N 37°56' E 023°38'0 0.0
2014-Oct-13 07:26N 37°56' E 023°38'0 0.0
2014-Oct-13 06:26N 37°56' E 023°38'0 0.0
2014-Oct-13 05:20N 37°56' E 023°38'0 0.0
2014-Oct-13 04:32N 37°56' E 023°38'0 0.0
2014-Oct-13 03:32N 37°56' E 023°38'0 0.0
2014-Oct-13 02:32N 37°56' E 023°38'0 0.0
2014-Oct-13 01:32N 37°56' E 023°38'0 0.0
2014-Oct-13 00:32N 37°56' E 023°38'0 0.0
2014-Oct-12 23:32N 37°56' E 023°38'0 0.0
2014-Oct-12 22:32N 37°56' E 023°38'0 0.0
2014-Oct-12 21:32N 37°56' E 023°38'0 0.0
2014-Oct-12 20:32N 37°56' E 023°38'0 0.0
2014-Oct-12 19:32N 37°56' E 023°38'0 0.0
2014-Oct-12 18:32N 37°56' E 023°38'0 0.0
2014-Oct-12 17:32N 37°56' E 023°38'0 0.0
2014-Oct-12 16:32N 37°56' E 023°38'0 0.0
2014-Oct-12 15:32N 37°56' E 023°38'0 0.0
2014-Oct-12 14:32N 37°56' E 023°38'0 0.0
2014-Oct-12 13:32N 37°56' E 023°38'0 0.0
2014-Oct-12 12:32N 37°56' E 023°38'0 0.0
2014-Oct-12 11:32N 37°56' E 023°38'0 0.0
2014-Oct-12 10:32N 37°56' E 023°38'0 0.0
2014-Oct-12 09:32N 37°56' E 023°38'1 1.3
2014-Oct-12 08:33N 37°56' E 023°37'10 9.6
2014-Oct-12 07:33N 37°50' E 023°27'2015.9
2014-Oct-12 06:17N 37°54' E 023°02'  
Track history (hours):
 
Tides and Currents Weather Stations Pressure Air Temp Water Temp Dewpoint Dewpoint Depression Visibility Wind Speed Wind Dir Waves Ship Positions

Ocean Majesty

Last reported at 2014-Oct-15 03:31 UTC. Time now 2014-Nov-25 23:11 UTC.
Position N 38°18' E 023°58'.
Warning: this ship's position is 41 days out of date.

Length 136 m; draft 6.3 m.

Type: Passenger vessel. MMSI: 255717000.

Date/timePositionNaut miles runAvg speedWind from/ knotsBaromVisibWave heightAir tempDewpointWater temp
2014-Oct-15 03:31N 38°18' E 023°58'1211.5
2014-Oct-15 02:29N 38°09' E 024°08'1112.0
2014-Oct-15 01:33N 37°58' E 024°09'12 9.2
2014-Oct-15 00:15N 37°47' E 024°16'911.8
2014-Oct-14 23:32N 37°39' E 024°12'2110.4
2014-Oct-14 21:32N 37°33' E 023°47'1111.3
2014-Oct-14 20:33N 37°43' E 023°41'1211.6
2014-Oct-14 19:33N 37°54' E 023°36'3 2.8
2014-Oct-14 18:30N 37°56' E 023°38'0 0.0
2014-Oct-14 17:33N 37°56' E 023°38'0 0.0
2014-Oct-14 16:33N 37°56' E 023°38'0 0.0
2014-Oct-14 15:33N 37°56' E 023°38'0 0.0
2014-Oct-14 14:33N 37°56' E 023°38'0 0.0
2014-Oct-14 13:33N 37°56' E 023°38'0 0.0
2014-Oct-14 12:33N 37°56' E 023°38'0 0.0
2014-Oct-14 11:33N 37°56' E 023°38'0 0.0
2014-Oct-14 10:33N 37°56' E 023°38'0 0.0
2014-Oct-14 09:33N 37°56' E 023°38'0 0.0
2014-Oct-14 08:33N 37°56' E 023°38'0 0.0
2014-Oct-14 07:33N 37°56' E 023°38'0 0.0
2014-Oct-14 06:24N 37°56' E 023°38'0 0.0
2014-Oct-14 05:33N 37°56' E 023°38'0 0.0
2014-Oct-14 04:33N 37°56' E 023°38'0 0.0
2014-Oct-14 03:33N 37°56' E 023°38'0 0.0
2014-Oct-14 02:33N 37°56' E 023°38'0 0.0
2014-Oct-14 01:21N 37°56' E 023°38'0 0.0
2014-Oct-14 00:18N 37°56' E 023°38'0 0.0
2014-Oct-13 23:32N 37°56' E 023°38'0 0.0
2014-Oct-13 22:29N 37°56' E 023°38'0 0.0
2014-Oct-13 21:32N 37°56' E 023°38'0 0.0
2014-Oct-13 20:32N 37°56' E 023°38'0 0.0
2014-Oct-13 19:32N 37°56' E 023°38'0 0.0
2014-Oct-13 18:32N 37°56' E 023°38'0 0.0
2014-Oct-13 17:32N 37°56' E 023°38'0 0.0
2014-Oct-13 16:29N 37°56' E 023°38'0 0.0
2014-Oct-13 15:32N 37°56' E 023°38'0 0.0
2014-Oct-13 14:32N 37°56' E 023°38'0 0.0
2014-Oct-13 13:32N 37°56' E 023°38'0 0.0
2014-Oct-13 12:32N 37°56' E 023°38'0 0.0
2014-Oct-13 11:20N 37°56' E 023°38'0 0.0
2014-Oct-13 10:32N 37°56' E 023°38'0 0.0
2014-Oct-13 09:32N 37°56' E 023°38'0 0.0
2014-Oct-13 08:32N 37°56' E 023°38'0 0.0
2014-Oct-13 07:26N 37°56' E 023°38'0 0.0
2014-Oct-13 06:26N 37°56' E 023°38'0 0.0
2014-Oct-13 05:20N 37°56' E 023°38'0 0.0
2014-Oct-13 04:32N 37°56' E 023°38'0 0.0
2014-Oct-13 03:32N 37°56' E 023°38'0 0.0
2014-Oct-13 02:32N 37°56' E 023°38'0 0.0
2014-Oct-13 01:32N 37°56' E 023°38'0 0.0
2014-Oct-13 00:32N 37°56' E 023°38'0 0.0
2014-Oct-12 23:32N 37°56' E 023°38'0 0.0
2014-Oct-12 22:32N 37°56' E 023°38'0 0.0
2014-Oct-12 21:32N 37°56' E 023°38'0 0.0
2014-Oct-12 20:32N 37°56' E 023°38'0 0.0
2014-Oct-12 19:32N 37°56' E 023°38'0 0.0
2014-Oct-12 18:32N 37°56' E 023°38'0 0.0
2014-Oct-12 17:32N 37°56' E 023°38'0 0.0
2014-Oct-12 16:32N 37°56' E 023°38'0 0.0
2014-Oct-12 15:32N 37°56' E 023°38'0 0.0
2014-Oct-12 14:32N 37°56' E 023°38'0 0.0
2014-Oct-12 13:32N 37°56' E 023°38'0 0.0
2014-Oct-12 12:32N 37°56' E 023°38'0 0.0
2014-Oct-12 11:32N 37°56' E 023°38'0 0.0
2014-Oct-12 10:32N 37°56' E 023°38'0 0.0
2014-Oct-12 09:32N 37°56' E 023°38'1 1.3
2014-Oct-12 08:33N 37°56' E 023°37'10 9.6
2014-Oct-12 07:33N 37°50' E 023°27'2015.9
2014-Oct-12 06:17N 37°54' E 023°02'  

Dump ship's entire track history